sensor_id;sensor_type;location;lat;lon;timestamp;temperature;humidity
10980;DHT22;5543;51.734;8.744;2023-05-18T00:00:10;4.50;99.90
10980;DHT22;5543;51.734;8.744;2023-05-18T00:02:41;4.50;99.90
10980;DHT22;5543;51.734;8.744;2023-05-18T00:05:11;4.50;99.90
10980;DHT22;5543;51.734;8.744;2023-05-18T00:07:39;4.50;99.90
10980;DHT22;5543;51.734;8.744;2023-05-18T00:10:11;4.50;99.90
10980;DHT22;5543;51.734;8.744;2023-05-18T00:12:39;4.50;99.90
10980;DHT22;5543;51.734;8.744;2023-05-18T00:15:08;4.40;99.90
10980;DHT22;5543;51.734;8.744;2023-05-18T00:17:37;4.40;99.90
10980;DHT22;5543;51.734;8.744;2023-05-18T00:20:06;4.40;99.90
10980;DHT22;5543;51.734;8.744;2023-05-18T00:22:37;4.40;99.90
10980;DHT22;5543;51.734;8.744;2023-05-18T00:25:08;4.40;99.90
10980;DHT22;5543;51.734;8.744;2023-05-18T00:27:36;4.60;99.90
10980;DHT22;5543;51.734;8.744;2023-05-18T00:30:05;4.30;99.90
10980;DHT22;5543;51.734;8.744;2023-05-18T00:32:34;4.30;99.90
10980;DHT22;5543;51.734;8.744;2023-05-18T00:35:02;4.20;99.90
10980;DHT22;5543;51.734;8.744;2023-05-18T00:37:31;4.20;99.90
10980;DHT22;5543;51.734;8.744;2023-05-18T00:40:00;4.10;99.90
10980;DHT22;5543;51.734;8.744;2023-05-18T00:42:29;4.10;99.90
10980;DHT22;5543;51.734;8.744;2023-05-18T00:44:57;4.10;99.90
10980;DHT22;5543;51.734;8.744;2023-05-18T00:47:26;4.00;99.90
10980;DHT22;5543;51.734;8.744;2023-05-18T00:49:54;4.00;99.90
10980;DHT22;5543;51.734;8.744;2023-05-18T00:52:22;3.90;99.90
10980;DHT22;5543;51.734;8.744;2023-05-18T00:54:51;3.90;99.90
10980;DHT22;5543;51.734;8.744;2023-05-18T00:57:22;3.90;99.90
10980;DHT22;5543;51.734;8.744;2023-05-18T00:59:50;4.00;99.90
10980;DHT22;5543;51.734;8.744;2023-05-18T01:02:18;4.10;99.90
10980;DHT22;5543;51.734;8.744;2023-05-18T01:04:46;4.00;99.90
10980;DHT22;5543;51.734;8.744;2023-05-18T01:07:15;4.00;99.90
10980;DHT22;5543;51.734;8.744;2023-05-18T01:09:43;3.90;99.90
10980;DHT22;5543;51.734;8.744;2023-05-18T01:12:15;3.90;99.90
10980;DHT22;5543;51.734;8.744;2023-05-18T01:14:50;3.80;99.90
10980;DHT22;5543;51.734;8.744;2023-05-18T01:17:24;3.70;99.90
10980;DHT22;5543;51.734;8.744;2023-05-18T01:20:16;3.70;99.90
10980;DHT22;5543;51.734;8.744;2023-05-18T01:23:05;3.70;99.90
10980;DHT22;5543;51.734;8.744;2023-05-18T01:25:49;3.70;99.90
10980;DHT22;5543;51.734;8.744;2023-05-18T01:28:24;3.60;99.90
10980;DHT22;5543;51.734;8.744;2023-05-18T01:30:55;3.60;99.90
10980;DHT22;5543;51.734;8.744;2023-05-18T01:33:24;3.60;99.90
10980;DHT22;5543;51.734;8.744;2023-05-18T01:35:52;3.50;99.90
10980;DHT22;5543;51.734;8.744;2023-05-18T01:38:23;3.60;99.90
10980;DHT22;5543;51.734;8.744;2023-05-18T01:40:56;3.70;99.90
10980;DHT22;5543;51.734;8.744;2023-05-18T01:43:32;3.50;99.90
10980;DHT22;5543;51.734;8.744;2023-05-18T01:46:06;3.50;99.90
10980;DHT22;5543;51.734;8.744;2023-05-18T01:48:38;3.50;99.90
10980;DHT22;5543;51.734;8.744;2023-05-18T01:51:08;3.40;99.90
10980;DHT22;5543;51.734;8.744;2023-05-18T01:53:41;3.40;99.90
10980;DHT22;5543;51.734;8.744;2023-05-18T01:56:11;3.40;99.90
10980;DHT22;5543;51.734;8.744;2023-05-18T01:58:42;3.40;99.90
10980;DHT22;5543;51.734;8.744;2023-05-18T02:01:11;3.30;99.90
10980;DHT22;5543;51.734;8.744;2023-05-18T02:03:39;3.30;99.90
10980;DHT22;5543;51.734;8.744;2023-05-18T02:06:07;3.30;99.90
10980;DHT22;5543;51.734;8.744;2023-05-18T02:08:36;3.20;99.90
10980;DHT22;5543;51.734;8.744;2023-05-18T02:11:04;3.20;99.90
10980;DHT22;5543;51.734;8.744;2023-05-18T02:13:32;3.20;99.90
10980;DHT22;5543;51.734;8.744;2023-05-18T02:16:03;3.20;99.90
10980;DHT22;5543;51.734;8.744;2023-05-18T02:18:31;3.20;99.90
10980;DHT22;5543;51.734;8.744;2023-05-18T02:21:02;3.10;99.90
10980;DHT22;5543;51.734;8.744;2023-05-18T02:23:31;3.10;99.90
10980;DHT22;5543;51.734;8.744;2023-05-18T02:26:00;3.00;99.90
10980;DHT22;5543;51.734;8.744;2023-05-18T02:28:28;3.00;99.90
10980;DHT22;5543;51.734;8.744;2023-05-18T02:31:05;3.00;99.90
10980;DHT22;5543;51.734;8.744;2023-05-18T02:33:33;3.00;99.90
10980;DHT22;5543;51.734;8.744;2023-05-18T02:36:09;2.90;99.90
10980;DHT22;5543;51.734;8.744;2023-05-18T02:38:38;3.00;99.90
10980;DHT22;5543;51.734;8.744;2023-05-18T02:41:08;2.90;99.90
10980;DHT22;5543;51.734;8.744;2023-05-18T02:43:36;2.90;99.90
10980;DHT22;5543;51.734;8.744;2023-05-18T02:46:05;2.90;99.90
10980;DHT22;5543;51.734;8.744;2023-05-18T02:48:34;2.80;99.90
10980;DHT22;5543;51.734;8.744;2023-05-18T02:51:02;2.90;99.90
10980;DHT22;5543;51.734;8.744;2023-05-18T02:53:30;2.90;99.90
10980;DHT22;5543;51.734;8.744;2023-05-18T02:55:58;2.90;99.90
10980;DHT22;5543;51.734;8.744;2023-05-18T02:58:29;2.90;99.90
10980;DHT22;5543;51.734;8.744;2023-05-18T03:00:57;2.80;99.90
10980;DHT22;5543;51.734;8.744;2023-05-18T03:03:28;3.10;99.90
10980;DHT22;5543;51.734;8.744;2023-05-18T03:05:56;2.80;99.90
10980;DHT22;5543;51.734;8.744;2023-05-18T03:08:26;2.80;99.90
10980;DHT22;5543;51.734;8.744;2023-05-18T03:10:54;2.80;99.90
10980;DHT22;5543;51.734;8.744;2023-05-18T03:13:22;2.80;99.90
10980;DHT22;5543;51.734;8.744;2023-05-18T03:15:50;2.70;99.90
10980;DHT22;5543;51.734;8.744;2023-05-18T03:18:19;2.80;99.90
10980;DHT22;5543;51.734;8.744;2023-05-18T03:20:48;2.80;99.90
10980;DHT22;5543;51.734;8.744;2023-05-18T03:23:17;2.80;99.90
10980;DHT22;5543;51.734;8.744;2023-05-18T03:25:45;2.80;99.90
10980;DHT22;5543;51.734;8.744;2023-05-18T03:28:19;2.70;99.90
10980;DHT22;5543;51.734;8.744;2023-05-18T03:30:48;2.70;99.90
10980;DHT22;5543;51.734;8.744;2023-05-18T03:33:16;2.70;99.90
10980;DHT22;5543;51.734;8.744;2023-05-18T03:35:44;2.70;99.90
10980;DHT22;5543;51.734;8.744;2023-05-18T03:38:15;2.80;99.90
10980;DHT22;5543;51.734;8.744;2023-05-18T03:40:44;2.90;99.90
10980;DHT22;5543;51.734;8.744;2023-05-18T03:43:12;2.90;99.90
10980;DHT22;5543;51.734;8.744;2023-05-18T03:45:40;2.90;99.90
10980;DHT22;5543;51.734;8.744;2023-05-18T03:48:08;2.90;99.90
10980;DHT22;5543;51.734;8.744;2023-05-18T03:50:36;2.90;99.90
10980;DHT22;5543;51.734;8.744;2023-05-18T03:53:04;2.90;99.90
10980;DHT22;5543;51.734;8.744;2023-05-18T03:55:34;3.00;99.90
10980;DHT22;5543;51.734;8.744;2023-05-18T03:58:02;3.00;99.90
10980;DHT22;5543;51.734;8.744;2023-05-18T04:00:30;3.00;99.90
10980;DHT22;5543;51.734;8.744;2023-05-18T04:02:58;3.00;99.90
10980;DHT22;5543;51.734;8.744;2023-05-18T04:05:29;3.00;99.90
10980;DHT22;5543;51.734;8.744;2023-05-18T04:07:57;3.00;99.90
10980;DHT22;5543;51.734;8.744;2023-05-18T04:10:25;3.30;99.90
10980;DHT22;5543;51.734;8.744;2023-05-18T04:12:55;3.10;99.90
10980;DHT22;5543;51.734;8.744;2023-05-18T04:15:23;3.10;99.90
10980;DHT22;5543;51.734;8.744;2023-05-18T04:17:51;3.10;99.90
10980;DHT22;5543;51.734;8.744;2023-05-18T04:20:19;3.10;99.90
10980;DHT22;5543;51.734;8.744;2023-05-18T04:22:47;3.10;99.90
10980;DHT22;5543;51.734;8.744;2023-05-18T04:25:16;3.10;99.90
10980;DHT22;5543;51.734;8.744;2023-05-18T04:27:44;3.10;99.90
10980;DHT22;5543;51.734;8.744;2023-05-18T04:30:16;3.10;99.90
10980;DHT22;5543;51.734;8.744;2023-05-18T04:32:48;3.10;99.90
10980;DHT22;5543;51.734;8.744;2023-05-18T04:35:16;3.20;99.90
10980;DHT22;5543;51.734;8.744;2023-05-18T04:37:45;3.30;99.90
10980;DHT22;5543;51.734;8.744;2023-05-18T04:40:14;3.30;99.90
10980;DHT22;5543;51.734;8.744;2023-05-18T04:42:43;3.40;99.90
10980;DHT22;5543;51.734;8.744;2023-05-18T04:45:15;3.50;99.90
10980;DHT22;5543;51.734;8.744;2023-05-18T04:47:46;3.50;99.90
10980;DHT22;5543;51.734;8.744;2023-05-18T04:50:20;3.60;99.90
10980;DHT22;5543;51.734;8.744;2023-05-18T04:52:50;3.70;99.90
10980;DHT22;5543;51.734;8.744;2023-05-18T04:55:20;3.80;99.90
10980;DHT22;5543;51.734;8.744;2023-05-18T04:57:53;3.90;99.90
10980;DHT22;5543;51.734;8.744;2023-05-18T05:00:24;3.90;99.90
10980;DHT22;5543;51.734;8.744;2023-05-18T05:02:54;3.90;99.90
10980;DHT22;5543;51.734;8.744;2023-05-18T05:05:24;4.00;99.90
10980;DHT22;5543;51.734;8.744;2023-05-18T05:07:52;4.10;99.90
10980;DHT22;5543;51.734;8.744;2023-05-18T05:10:21;4.10;99.90
10980;DHT22;5543;51.734;8.744;2023-05-18T05:12:50;4.10;99.90
10980;DHT22;5543;51.734;8.744;2023-05-18T05:15:18;4.30;99.90
10980;DHT22;5543;51.734;8.744;2023-05-18T05:17:48;4.40;99.90
10980;DHT22;5543;51.734;8.744;2023-05-18T05:20:16;4.40;99.90
10980;DHT22;5543;51.734;8.744;2023-05-18T05:22:45;4.50;99.90
10980;DHT22;5543;51.734;8.744;2023-05-18T05:25:13;4.60;99.90
10980;DHT22;5543;51.734;8.744;2023-05-18T05:27:41;4.80;99.90
10980;DHT22;5543;51.734;8.744;2023-05-18T05:30:10;4.90;99.90
10980;DHT22;5543;51.734;8.744;2023-05-18T05:32:38;5.00;99.90
10980;DHT22;5543;51.734;8.744;2023-05-18T05:35:08;5.10;99.90
10980;DHT22;5543;51.734;8.744;2023-05-18T05:37:36;5.10;99.90
10980;DHT22;5543;51.734;8.744;2023-05-18T05:40:06;5.20;99.90
10980;DHT22;5543;51.734;8.744;2023-05-18T05:42:35;5.30;99.90
10980;DHT22;5543;51.734;8.744;2023-05-18T05:45:04;5.40;99.90
10980;DHT22;5543;51.734;8.744;2023-05-18T05:47:32;5.60;99.90
10980;DHT22;5543;51.734;8.744;2023-05-18T05:50:00;5.70;99.90
10980;DHT22;5543;51.734;8.744;2023-05-18T05:52:30;5.60;99.90
10980;DHT22;5543;51.734;8.744;2023-05-18T05:54:58;5.90;99.90
10980;DHT22;5543;51.734;8.744;2023-05-18T05:57:26;6.00;99.90
10980;DHT22;5543;51.734;8.744;2023-05-18T05:59:54;6.20;99.90
10980;DHT22;5543;51.734;8.744;2023-05-18T06:02:22;6.30;99.90
10980;DHT22;5543;51.734;8.744;2023-05-18T06:04:50;6.40;99.90
10980;DHT22;5543;51.734;8.744;2023-05-18T06:07:18;6.50;99.90
10980;DHT22;5543;51.734;8.744;2023-05-18T06:09:48;6.70;99.90
10980;DHT22;5543;51.734;8.744;2023-05-18T06:12:16;6.80;99.90
10980;DHT22;5543;51.734;8.744;2023-05-18T06:14:44;7.00;99.90
10980;DHT22;5543;51.734;8.744;2023-05-18T06:17:12;7.10;99.90
10980;DHT22;5543;51.734;8.744;2023-05-18T06:19:41;7.20;99.90
10980;DHT22;5543;51.734;8.744;2023-05-18T06:22:09;7.30;99.90
10980;DHT22;5543;51.734;8.744;2023-05-18T06:24:37;7.40;99.90
10980;DHT22;5543;51.734;8.744;2023-05-18T06:27:07;7.70;99.90
10980;DHT22;5543;51.734;8.744;2023-05-18T06:29:35;7.80;99.90
10980;DHT22;5543;51.734;8.744;2023-05-18T06:32:04;8.00;99.90
10980;DHT22;5543;51.734;8.744;2023-05-18T06:34:32;8.20;99.90
10980;DHT22;5543;51.734;8.744;2023-05-18T06:37:00;8.40;99.90
10980;DHT22;5543;51.734;8.744;2023-05-18T06:39:28;8.50;99.90
10980;DHT22;5543;51.734;8.744;2023-05-18T06:41:56;8.60;99.90
10980;DHT22;5543;51.734;8.744;2023-05-18T06:44:26;8.80;99.90
10980;DHT22;5543;51.734;8.744;2023-05-18T06:46:54;8.80;99.90
10980;DHT22;5543;51.734;8.744;2023-05-18T06:49:22;8.90;99.90
10980;DHT22;5543;51.734;8.744;2023-05-18T06:51:50;9.00;99.90
10980;DHT22;5543;51.734;8.744;2023-05-18T06:54:18;9.20;99.90
10980;DHT22;5543;51.734;8.744;2023-05-18T06:56:47;9.70;99.90
10980;DHT22;5543;51.734;8.744;2023-05-18T06:59:15;9.60;99.90
10980;DHT22;5543;51.734;8.744;2023-05-18T07:01:45;9.70;99.90
10980;DHT22;5543;51.734;8.744;2023-05-18T07:04:13;9.90;99.90
10980;DHT22;5543;51.734;8.744;2023-05-18T07:06:42;10.10;99.90
10980;DHT22;5543;51.734;8.744;2023-05-18T07:09:10;10.30;99.90
10980;DHT22;5543;51.734;8.744;2023-05-18T07:11:38;10.40;99.90
10980;DHT22;5543;51.734;8.744;2023-05-18T07:14:06;10.50;99.90
10980;DHT22;5543;51.734;8.744;2023-05-18T07:16:34;10.60;99.90
10980;DHT22;5543;51.734;8.744;2023-05-18T07:19:04;10.70;99.90
10980;DHT22;5543;51.734;8.744;2023-05-18T07:21:32;10.70;97.60
10980;DHT22;5543;51.734;8.744;2023-05-18T07:24:01;10.90;99.00
10980;DHT22;5543;51.734;8.744;2023-05-18T07:26:29;10.90;98.00
10980;DHT22;5543;51.734;8.744;2023-05-18T07:28:58;11.10;99.70
10980;DHT22;5543;51.734;8.744;2023-05-18T07:31:26;11.10;99.10
10980;DHT22;5543;51.734;8.744;2023-05-18T07:33:54;11.10;96.30
10980;DHT22;5543;51.734;8.744;2023-05-18T07:36:24;11.30;98.00
10980;DHT22;5543;51.734;8.744;2023-05-18T07:38:54;11.30;98.10
10980;DHT22;5543;51.734;8.744;2023-05-18T07:41:23;11.40;98.90
10980;DHT22;5543;51.734;8.744;2023-05-18T07:43:51;11.60;99.00
10980;DHT22;5543;51.734;8.744;2023-05-18T07:46:19;11.80;98.30
10980;DHT22;5543;51.734;8.744;2023-05-18T07:48:48;11.90;97.60
10980;DHT22;5543;51.734;8.744;2023-05-18T07:51:16;12.20;98.50
10980;DHT22;5543;51.734;8.744;2023-05-18T07:53:45;12.40;97.70
10980;DHT22;5543;51.734;8.744;2023-05-18T07:56:13;12.50;96.60
10980;DHT22;5543;51.734;8.744;2023-05-18T07:58:42;12.70;97.90
10980;DHT22;5543;51.734;8.744;2023-05-18T08:01:10;12.80;96.40
10980;DHT22;5543;51.734;8.744;2023-05-18T08:03:38;13.00;95.90
10980;DHT22;5543;51.734;8.744;2023-05-18T08:06:07;13.20;96.50
10980;DHT22;5543;51.734;8.744;2023-05-18T08:08:35;13.50;97.20
10980;DHT22;5543;51.734;8.744;2023-05-18T08:11:05;13.80;95.90
10980;DHT22;5543;51.734;8.744;2023-05-18T08:13:33;13.90;93.70
10980;DHT22;5543;51.734;8.744;2023-05-18T08:16:01;13.90;93.30
10980;DHT22;5543;51.734;8.744;2023-05-18T08:18:35;14.20;93.40
10980;DHT22;5543;51.734;8.744;2023-05-18T08:21:04;14.50;93.60
10980;DHT22;5543;51.734;8.744;2023-05-18T08:23:34;14.90;93.90
10980;DHT22;5543;51.734;8.744;2023-05-18T08:26:02;15.50;91.60
10980;DHT22;5543;51.734;8.744;2023-05-18T08:28:31;15.90;90.00
10980;DHT22;5543;51.734;8.744;2023-05-18T08:30:59;16.80;91.50
10980;DHT22;5543;51.734;8.744;2023-05-18T08:33:28;18.00;90.70
10980;DHT22;5543;51.734;8.744;2023-05-18T08:35:58;19.10;85.10
10980;DHT22;5543;51.734;8.744;2023-05-18T08:38:26;19.80;78.70
10980;DHT22;5543;51.734;8.744;2023-05-18T08:41:01;20.60;81.10
10980;DHT22;5543;51.734;8.744;2023-05-18T08:43:37;21.80;79.60
10980;DHT22;5543;51.734;8.744;2023-05-18T08:46:19;22.50;74.50
10980;DHT22;5543;51.734;8.744;2023-05-18T08:48:50;23.20;76.50
10980;DHT22;5543;51.734;8.744;2023-05-18T08:51:20;23.90;69.50
10980;DHT22;5543;51.734;8.744;2023-05-18T08:53:51;24.30;66.20
10980;DHT22;5543;51.734;8.744;2023-05-18T08:56:22;24.50;66.00
10980;DHT22;5543;51.734;8.744;2023-05-18T08:58:54;25.00;63.80
10980;DHT22;5543;51.734;8.744;2023-05-18T09:01:24;25.40;60.40
10980;DHT22;5543;51.734;8.744;2023-05-18T09:03:56;25.40;57.90
10980;DHT22;5543;51.734;8.744;2023-05-18T09:06:26;25.60;62.40
10980;DHT22;5543;51.734;8.744;2023-05-18T09:08:55;26.30;63.10
10980;DHT22;5543;51.734;8.744;2023-05-18T09:11:25;26.60;57.80
10980;DHT22;5543;51.734;8.744;2023-05-18T09:13:55;26.70;59.90
10980;DHT22;5543;51.734;8.744;2023-05-18T09:16:24;26.20;54.60
10980;DHT22;5543;51.734;8.744;2023-05-18T09:18:52;26.70;54.40
10980;DHT22;5543;51.734;8.744;2023-05-18T09:21:21;26.90;53.20
10980;DHT22;5543;51.734;8.744;2023-05-18T09:23:49;27.20;55.10
10980;DHT22;5543;51.734;8.744;2023-05-18T09:26:18;27.80;55.00
10980;DHT22;5543;51.734;8.744;2023-05-18T09:28:50;27.00;48.30
10980;DHT22;5543;51.734;8.744;2023-05-18T09:31:21;26.80;55.00
10980;DHT22;5543;51.734;8.744;2023-05-18T09:33:51;27.00;52.00
10980;DHT22;5543;51.734;8.744;2023-05-18T09:36:24;26.00;51.20
10980;DHT22;5543;51.734;8.744;2023-05-18T09:38:54;25.50;54.60
10980;DHT22;5543;51.734;8.744;2023-05-18T09:41:26;26.00;56.00
10980;DHT22;5543;51.734;8.744;2023-05-18T09:43:54;26.80;55.80
10980;DHT22;5543;51.734;8.744;2023-05-18T09:46:23;26.20;52.80
10980;DHT22;5543;51.734;8.744;2023-05-18T09:48:53;26.00;49.60
10980;DHT22;5543;51.734;8.744;2023-05-18T09:51:21;25.90;52.40
10980;DHT22;5543;51.734;8.744;2023-05-18T09:53:53;26.20;54.60
10980;DHT22;5543;51.734;8.744;2023-05-18T09:56:22;27.20;56.00
10980;DHT22;5543;51.734;8.744;2023-05-18T09:58:51;28.20;53.80
10980;DHT22;5543;51.734;8.744;2023-05-18T10:01:19;27.90;51.10
10980;DHT22;5543;51.734;8.744;2023-05-18T10:03:49;26.90;51.50
10980;DHT22;5543;51.734;8.744;2023-05-18T10:06:19;25.80;53.80
10980;DHT22;5543;51.734;8.744;2023-05-18T10:08:55;24.80;54.10
10980;DHT22;5543;51.734;8.744;2023-05-18T10:11:24;25.00;57.50
10980;DHT22;5543;51.734;8.744;2023-05-18T10:13:53;26.00;53.00
10980;DHT22;5543;51.734;8.744;2023-05-18T10:16:23;26.10;52.20
10980;DHT22;5543;51.734;8.744;2023-05-18T10:18:53;24.90;51.70
10980;DHT22;5543;51.734;8.744;2023-05-18T10:21:23;23.00;52.40
10980;DHT22;5543;51.734;8.744;2023-05-18T10:23:54;21.80;56.30
10980;DHT22;5543;51.734;8.744;2023-05-18T10:26:24;21.10;60.00
10980;DHT22;5543;51.734;8.744;2023-05-18T10:28:56;20.60;61.10
10980;DHT22;5543;51.734;8.744;2023-05-18T10:31:26;21.80;64.90
10980;DHT22;5543;51.734;8.744;2023-05-18T10:33:59;24.20;62.40
10980;DHT22;5543;51.734;8.744;2023-05-18T10:36:29;26.50;57.70
10980;DHT22;5543;51.734;8.744;2023-05-18T10:38:59;26.80;52.30
10980;DHT22;5543;51.734;8.744;2023-05-18T10:41:29;26.40;52.50
10980;DHT22;5543;51.734;8.744;2023-05-18T10:43:59;25.40;54.10
10980;DHT22;5543;51.734;8.744;2023-05-18T10:46:30;25.10;51.80
10980;DHT22;5543;51.734;8.744;2023-05-18T10:49:00;26.20;54.30
10980;DHT22;5543;51.734;8.744;2023-05-18T10:51:31;26.20;52.00
10980;DHT22;5543;51.734;8.744;2023-05-18T10:54:11;26.30;51.70
10980;DHT22;5543;51.734;8.744;2023-05-18T10:56:41;26.80;51.10
10980;DHT22;5543;51.734;8.744;2023-05-18T10:59:12;28.30;51.60
10980;DHT22;5543;51.734;8.744;2023-05-18T11:01:41;28.50;50.50
10980;DHT22;5543;51.734;8.744;2023-05-18T11:04:11;28.10;46.40
10980;DHT22;5543;51.734;8.744;2023-05-18T11:06:40;28.90;48.70
10980;DHT22;5543;51.734;8.744;2023-05-18T11:09:21;29.20;45.80
10980;DHT22;5543;51.734;8.744;2023-05-18T11:11:51;28.10;46.90
10980;DHT22;5543;51.734;8.744;2023-05-18T11:14:27;27.60;44.80
10980;DHT22;5543;51.734;8.744;2023-05-18T11:17:14;25.60;47.60
10980;DHT22;5543;51.734;8.744;2023-05-18T11:20:15;25.20;53.20
10980;DHT22;5543;51.734;8.744;2023-05-18T11:22:48;25.50;50.50
10980;DHT22;5543;51.734;8.744;2023-05-18T11:25:36;27.10;52.60
10980;DHT22;5543;51.734;8.744;2023-05-18T11:28:06;28.90;51.50
10980;DHT22;5543;51.734;8.744;2023-05-18T11:30:49;30.40;48.00
10980;DHT22;5543;51.734;8.744;2023-05-18T11:33:26;31.70;44.60
10980;DHT22;5543;51.734;8.744;2023-05-18T11:36:09;31.90;45.90
10980;DHT22;5543;51.734;8.744;2023-05-18T11:38:52;31.70;44.40
10980;DHT22;5543;51.734;8.744;2023-05-18T11:41:31;30.90;44.40
10980;DHT22;5543;51.734;8.744;2023-05-18T11:44:14;30.80;45.90
10980;DHT22;5543;51.734;8.744;2023-05-18T11:46:54;29.30;44.80
10980;DHT22;5543;51.734;8.744;2023-05-18T11:49:24;29.10;45.80
10980;DHT22;5543;51.734;8.744;2023-05-18T11:52:07;28.90;45.00
10980;DHT22;5543;51.734;8.744;2023-05-18T11:54:41;26.60;42.90
10980;DHT22;5543;51.734;8.744;2023-05-18T11:57:10;24.70;49.40
10980;DHT22;5543;51.734;8.744;2023-05-18T11:59:40;23.70;51.40
10980;DHT22;5543;51.734;8.744;2023-05-18T12:02:09;23.60;54.30
10980;DHT22;5543;51.734;8.744;2023-05-18T12:04:43;24.10;52.40
10980;DHT22;5543;51.734;8.744;2023-05-18T12:07:13;24.00;51.70
10980;DHT22;5543;51.734;8.744;2023-05-18T12:09:42;24.10;51.50
10980;DHT22;5543;51.734;8.744;2023-05-18T12:12:12;24.10;52.40
10980;DHT22;5543;51.734;8.744;2023-05-18T12:14:43;25.00;54.30
10980;DHT22;5543;51.734;8.744;2023-05-18T12:17:12;26.20;51.40
10980;DHT22;5543;51.734;8.744;2023-05-18T12:19:41;26.40;46.00
10980;DHT22;5543;51.734;8.744;2023-05-18T12:22:10;27.00;48.00
10980;DHT22;5543;51.734;8.744;2023-05-18T12:24:41;27.50;44.70
10980;DHT22;5543;51.734;8.744;2023-05-18T12:27:11;27.50;47.80
10980;DHT22;5543;51.734;8.744;2023-05-18T12:29:40;27.50;46.40
10980;DHT22;5543;51.734;8.744;2023-05-18T12:32:10;26.40;47.00
10980;DHT22;5543;51.734;8.744;2023-05-18T12:34:38;26.60;49.30
10980;DHT22;5543;51.734;8.744;2023-05-18T12:37:07;27.30;47.90
10980;DHT22;5543;51.734;8.744;2023-05-18T12:39:36;27.00;48.50
10980;DHT22;5543;51.734;8.744;2023-05-18T12:42:10;26.30;48.90
10980;DHT22;5543;51.734;8.744;2023-05-18T12:44:41;26.10;50.80
10980;DHT22;5543;51.734;8.744;2023-05-18T12:47:11;25.40;51.50
10980;DHT22;5543;51.734;8.744;2023-05-18T12:49:41;23.80;49.30
10980;DHT22;5543;51.734;8.744;2023-05-18T12:52:13;23.60;52.90
10980;DHT22;5543;51.734;8.744;2023-05-18T12:54:50;24.40;53.90
10980;DHT22;5543;51.734;8.744;2023-05-18T12:57:24;25.30;53.20
10980;DHT22;5543;51.734;8.744;2023-05-18T12:59:53;26.40;51.40
10980;DHT22;5543;51.734;8.744;2023-05-18T13:02:27;27.60;51.20
10980;DHT22;5543;51.734;8.744;2023-05-18T13:05:04;28.00;48.50
10980;DHT22;5543;51.734;8.744;2023-05-18T13:07:38;26.90;45.80
10980;DHT22;5543;51.734;8.744;2023-05-18T13:10:09;26.80;47.70
10980;DHT22;5543;51.734;8.744;2023-05-18T13:12:44;25.80;43.50
10980;DHT22;5543;51.734;8.744;2023-05-18T13:15:15;25.80;50.40
10980;DHT22;5543;51.734;8.744;2023-05-18T13:17:57;26.30;49.10
10980;DHT22;5543;51.734;8.744;2023-05-18T13:20:37;27.00;49.00
10980;DHT22;5543;51.734;8.744;2023-05-18T13:23:07;26.90;48.50
10980;DHT22;5543;51.734;8.744;2023-05-18T13:25:36;26.30;48.40
10980;DHT22;5543;51.734;8.744;2023-05-18T13:28:06;26.80;49.60
10980;DHT22;5543;51.734;8.744;2023-05-18T13:30:36;27.50;47.30
10980;DHT22;5543;51.734;8.744;2023-05-18T13:33:05;28.00;45.60
10980;DHT22;5543;51.734;8.744;2023-05-18T13:35:35;27.30;45.30
10980;DHT22;5543;51.734;8.744;2023-05-18T13:38:03;27.50;48.10
10980;DHT22;5543;51.734;8.744;2023-05-18T13:40:32;27.90;50.30
10980;DHT22;5543;51.734;8.744;2023-05-18T13:43:00;28.20;45.80
10980;DHT22;5543;51.734;8.744;2023-05-18T13:45:30;28.30;48.90
10980;DHT22;5543;51.734;8.744;2023-05-18T13:47:59;27.30;43.50
10980;DHT22;5543;51.734;8.744;2023-05-18T13:50:27;25.90;45.30
10980;DHT22;5543;51.734;8.744;2023-05-18T13:52:56;25.30;47.90
10980;DHT22;5543;51.734;8.744;2023-05-18T13:55:24;25.70;50.50
10980;DHT22;5543;51.734;8.744;2023-05-18T13:57:52;26.20;51.00
10980;DHT22;5543;51.734;8.744;2023-05-18T14:00:20;25.30;50.40
10980;DHT22;5543;51.734;8.744;2023-05-18T14:02:50;25.50;50.60
10980;DHT22;5543;51.734;8.744;2023-05-18T14:05:19;25.40;51.40
10980;DHT22;5543;51.734;8.744;2023-05-18T14:07:48;25.70;50.00
10980;DHT22;5543;51.734;8.744;2023-05-18T14:10:18;25.60;50.90
10980;DHT22;5543;51.734;8.744;2023-05-18T14:12:46;25.80;51.20
10980;DHT22;5543;51.734;8.744;2023-05-18T14:15:14;26.00;50.80
10980;DHT22;5543;51.734;8.744;2023-05-18T14:17:43;25.60;46.50
10980;DHT22;5543;51.734;8.744;2023-05-18T14:20:13;25.00;49.30
10980;DHT22;5543;51.734;8.744;2023-05-18T14:22:41;24.30;51.70
10980;DHT22;5543;51.734;8.744;2023-05-18T14:25:10;23.70;51.70
10980;DHT22;5543;51.734;8.744;2023-05-18T14:27:38;23.70;52.90
10980;DHT22;5543;51.734;8.744;2023-05-18T14:30:08;23.50;50.10
10980;DHT22;5543;51.734;8.744;2023-05-18T14:32:39;23.20;50.60
10980;DHT22;5543;51.734;8.744;2023-05-18T14:35:09;22.60;52.40
10980;DHT22;5543;51.734;8.744;2023-05-18T14:37:40;22.20;52.10
10980;DHT22;5543;51.734;8.744;2023-05-18T14:40:10;22.60;53.70
10980;DHT22;5543;51.734;8.744;2023-05-18T14:42:39;22.60;52.30
10980;DHT22;5543;51.734;8.744;2023-05-18T14:45:09;22.80;55.10
10980;DHT22;5543;51.734;8.744;2023-05-18T14:47:38;22.80;51.70
10980;DHT22;5543;51.734;8.744;2023-05-18T14:50:08;22.70;51.00
10980;DHT22;5543;51.734;8.744;2023-05-18T14:52:36;22.40;53.70
10980;DHT22;5543;51.734;8.744;2023-05-18T14:55:07;22.40;52.00
10980;DHT22;5543;51.734;8.744;2023-05-18T14:57:36;22.10;53.10
10980;DHT22;5543;51.734;8.744;2023-05-18T15:00:05;20.60;52.90
10980;DHT22;5543;51.734;8.744;2023-05-18T15:02:33;21.90;53.10
10980;DHT22;5543;51.734;8.744;2023-05-18T15:05:02;21.30;51.50
10980;DHT22;5543;51.734;8.744;2023-05-18T15:07:30;21.30;51.60
10980;DHT22;5543;51.734;8.744;2023-05-18T15:09:59;21.50;54.20
10980;DHT22;5543;51.734;8.744;2023-05-18T15:12:28;21.40;52.40
10980;DHT22;5543;51.734;8.744;2023-05-18T15:14:57;21.00;54.30
10980;DHT22;5543;51.734;8.744;2023-05-18T15:17:25;20.80;54.20
10980;DHT22;5543;51.734;8.744;2023-05-18T15:19:53;21.10;55.50
10980;DHT22;5543;51.734;8.744;2023-05-18T15:22:22;21.20;57.30
10980;DHT22;5543;51.734;8.744;2023-05-18T15:24:50;20.70;56.60
10980;DHT22;5543;51.734;8.744;2023-05-18T15:27:18;20.60;56.70
10980;DHT22;5543;51.734;8.744;2023-05-18T15:29:47;20.50;56.30
10980;DHT22;5543;51.734;8.744;2023-05-18T15:32:16;20.70;57.30
10980;DHT22;5543;51.734;8.744;2023-05-18T15:34:44;20.90;57.00
10980;DHT22;5543;51.734;8.744;2023-05-18T15:37:13;21.10;57.60
10980;DHT22;5543;51.734;8.744;2023-05-18T15:39:42;21.20;56.40
10980;DHT22;5543;51.734;8.744;2023-05-18T15:42:10;21.30;56.20
10980;DHT22;5543;51.734;8.744;2023-05-18T15:44:39;21.10;56.10
10980;DHT22;5543;51.734;8.744;2023-05-18T15:47:08;21.30;57.50
10980;DHT22;5543;51.734;8.744;2023-05-18T15:49:37;21.20;56.80
10980;DHT22;5543;51.734;8.744;2023-05-18T15:52:06;21.40;56.70
10980;DHT22;5543;51.734;8.744;2023-05-18T15:54:34;21.40;56.80
10980;DHT22;5543;51.734;8.744;2023-05-18T15:57:03;21.40;58.10
10980;DHT22;5543;51.734;8.744;2023-05-18T15:59:32;21.30;55.60
10980;DHT22;5543;51.734;8.744;2023-05-18T16:02:01;21.10;56.70
10980;DHT22;5543;51.734;8.744;2023-05-18T16:04:31;20.90;56.40
10980;DHT22;5543;51.734;8.744;2023-05-18T16:07:00;20.70;58.00
10980;DHT22;5543;51.734;8.744;2023-05-18T16:09:30;20.50;58.90